createdAt,value
2023-02-19T05:02:38.569Z,80.57
2023-02-19T05:06:41.103Z,80.38
2023-02-19T05:10:43.614Z,80.02
2023-02-19T05:14:46.137Z,80.58
2023-02-19T05:18:50.052Z,80.31
2023-02-19T05:22:52.601Z,79.76
2023-02-19T05:26:55.127Z,79.89
2023-02-19T05:30:58.231Z,79.60
2023-02-19T05:35:02.147Z,80.65
2023-02-19T05:39:06.130Z,82.52
2023-02-19T05:43:09.150Z,82.89
2023-02-19T05:47:11.743Z,83.64
2023-02-19T05:51:17.618Z,84.35
2023-02-19T05:55:20.237Z,84.78
2023-02-19T05:59:25.443Z,85.15
2023-02-19T06:03:27.973Z,84.57
2023-02-19T06:07:33.088Z,84.56
2023-02-19T06:11:36.262Z,84.46
2023-02-19T06:15:39.059Z,83.58
2023-02-19T06:19:41.623Z,83.01
2023-02-19T06:23:46.026Z,83.43
2023-02-19T06:27:48.569Z,85.76
2023-02-19T06:31:51.237Z,88.84
2023-02-19T06:35:53.981Z,89.00
2023-02-19T06:39:57.861Z,89.27
2023-02-19T06:44:01.070Z,89.28
2023-02-19T06:48:03.606Z,89.13
2023-02-19T06:52:06.111Z,89.54
2023-02-19T06:56:24.692Z,89.39
2023-02-19T07:00:27.378Z,89.93
2023-02-19T07:04:29.934Z,90.22
2023-02-19T07:08:32.490Z,89.76
2023-02-19T07:12:36.333Z,90.41
2023-02-19T07:16:39.345Z,90.87
2023-02-19T07:20:41.904Z,90.47
2023-02-19T07:24:46.862Z,90.26
2023-02-19T07:28:52.501Z,89.13
2023-02-19T07:32:55.040Z,89.25
2023-02-19T07:36:57.544Z,88.57
2023-02-19T07:41:01.984Z,86.64
2023-02-19T07:45:06.292Z,86.65
2023-02-19T07:49:08.893Z,86.94
2023-02-19T07:53:11.436Z,86.30
2023-02-19T07:57:14.435Z,86.57
2023-02-19T08:01:40.085Z,86.91
2023-02-19T08:05:43.763Z,87.02
2023-02-19T08:10:06.262Z,87.91
2023-02-19T08:14:08.797Z,90.96
2023-02-19T08:18:13.868Z,92.34
2023-02-19T08:22:16.840Z,91.84
2023-02-19T08:26:19.712Z,91.51
2023-02-19T08:30:22.703Z,91.68
2023-02-19T08:34:26.651Z,91.10
2023-02-19T08:38:29.175Z,91.03
2023-02-19T08:42:31.691Z,90.44
2023-02-19T08:46:34.621Z,90.14
2023-02-19T08:50:39.189Z,90.04
2023-02-19T08:54:41.736Z,89.27
2023-02-19T08:58:44.592Z,88.45
2023-02-19T09:02:47.084Z,88.51
2023-02-19T09:06:51.143Z,86.97
2023-02-19T09:11:00.548Z,85.93
2023-02-19T09:15:03.057Z,85.86
2023-02-19T09:19:05.819Z,84.87
2023-02-19T09:23:09.678Z,84.58
2023-02-19T09:27:16.588Z,82.56
2023-02-19T09:31:19.223Z,81.56
2023-02-19T09:35:21.801Z,81.47
2023-02-19T09:39:25.622Z,80.27
2023-02-19T09:43:29.666Z,80.45
2023-02-19T09:47:34.941Z,80.85
2023-02-19T09:51:41.069Z,80.51
2023-02-19T09:55:45.782Z,81.05
2023-02-19T09:59:52.071Z,80.26
2023-02-19T10:03:54.634Z,80.33
2023-02-19T10:07:58.972Z,78.60
2023-02-19T10:12:03.150Z,77.63
2023-02-19T10:16:09.879Z,76.96
2023-02-19T10:20:15.826Z,76.38
2023-02-19T10:24:22.396Z,74.66
2023-02-19T10:28:30.229Z,74.20
2023-02-19T10:32:32.794Z,73.09
2023-02-19T10:36:39.484Z,71.36
2023-02-19T10:40:45.817Z,71.38
2023-02-19T10:44:55.519Z,71.18
2023-02-19T10:49:00.450Z,69.98
2023-02-19T10:53:03.018Z,69.51
2023-02-19T10:57:29.786Z,68.97
2023-02-19T11:01:33.746Z,71.23
2023-02-19T11:05:39.167Z,71.41
2023-02-19T11:09:45.377Z,70.47
2023-02-19T11:13:48.629Z,70.48
2023-02-19T11:18:04.191Z,68.50
2023-02-19T11:22:21.314Z,65.68
2023-02-19T11:26:27.672Z,65.74
2023-02-19T11:30:36.724Z,65.10
2023-02-19T11:34:40.660Z,64.21
2023-02-19T11:38:43.563Z,62.39
2023-02-19T11:42:54.383Z,63.22
2023-02-19T11:47:25.278Z,65.25
2023-02-19T11:51:52.189Z,65.88
2023-02-19T11:56:08.992Z,64.89
2023-02-19T12:00:24.803Z,63.49
2023-02-19T12:04:55.569Z,64.57
2023-02-19T12:09:21.728Z,65.00
2023-02-19T12:13:30.893Z,65.18
2023-02-19T12:17:56.463Z,64.30
2023-02-19T12:22:12.797Z,64.04
2023-02-19T12:26:24.808Z,63.41
2023-02-19T12:30:48.095Z,62.67
2023-02-19T12:35:28.041Z,63.33
2023-02-19T12:39:40.207Z,62.36
2023-02-19T12:43:52.771Z,62.43
2023-02-19T12:48:02.486Z,62.96
2023-02-19T12:52:11.046Z,62.48
2023-02-19T12:56:20.121Z,62.50
2023-02-19T13:00:33.080Z,62.91
2023-02-19T13:04:44.293Z,62.67
2023-02-19T13:09:05.459Z,63.78
2023-02-19T13:13:16.092Z,63.63
2023-02-19T13:17:25.048Z,64.39
2023-02-19T13:21:48.882Z,65.17
2023-02-19T13:26:02.650Z,64.03
2023-02-19T13:30:27.570Z,63.17
2023-02-19T13:34:47.760Z,62.36
2023-02-19T13:38:51.143Z,62.40
2023-02-19T13:42:56.548Z,62.16
2023-02-19T13:47:00.496Z,61.44
2023-02-19T13:51:36.338Z,62.01
2023-02-19T13:55:53.972Z,62.60
2023-02-19T13:59:57.984Z,62.15
2023-02-19T14:04:17.229Z,61.38
2023-02-19T14:08:49.172Z,62.75
2023-02-19T14:12:51.730Z,62.61
2023-02-19T14:17:05.679Z,62.53
2023-02-19T14:21:16.907Z,62.35
2023-02-19T14:25:30.187Z,62.04
2023-02-19T14:29:32.817Z,62.74
2023-02-19T14:33:38.217Z,62.74
2023-02-19T14:37:40.861Z,63.15
2023-02-19T14:41:47.161Z,61.91
2023-02-19T14:45:53.508Z,61.56
2023-02-19T14:50:01.146Z,61.58
2023-02-19T14:54:15.957Z,61.48
2023-02-19T14:58:24.173Z,61.59
2023-02-19T15:02:28.049Z,61.81
2023-02-19T15:06:32.412Z,62.76
2023-02-19T15:10:37.102Z,62.74
2023-02-19T15:14:41.408Z,62.81
2023-02-19T15:18:46.429Z,62.23
2023-02-19T15:22:49.182Z,62.57
2023-02-19T15:26:54.114Z,62.72
2023-02-19T15:31:14.789Z,62.68
2023-02-19T15:35:24.250Z,62.45
2023-02-19T15:39:33.468Z,63.23
2023-02-19T15:43:44.270Z,63.37
2023-02-19T15:47:52.141Z,63.94
2023-02-19T15:51:59.262Z,64.51
2023-02-19T15:56:08.020Z,64.72
2023-02-19T16:00:16.472Z,64.81
2023-02-19T16:04:20.962Z,65.60
2023-02-19T16:08:30.997Z,68.35
2023-02-19T16:12:33.746Z,70.49
2023-02-19T16:16:39.388Z,72.41
2023-02-19T16:20:48.433Z,73.50
2023-02-19T16:24:54.141Z,74.55
2023-02-19T16:28:56.753Z,75.69
2023-02-19T16:33:36.345Z,76.06
2023-02-19T16:37:43.519Z,76.03
2023-02-19T16:42:15.380Z,76.68
2023-02-19T16:46:17.962Z,76.94
2023-02-19T16:50:23.680Z,77.32
2023-02-19T16:54:27.558Z,77.30
2023-02-19T16:58:30.110Z,77.12
2023-02-19T17:02:33.838Z,77.08
2023-02-19T17:06:37.719Z,77.70
2023-02-19T17:10:41.591Z,77.64
2023-02-19T17:14:44.165Z,78.42
2023-02-19T17:18:46.704Z,78.50
2023-02-19T17:22:49.221Z,78.91
2023-02-19T17:26:53.064Z,77.95
2023-02-19T17:30:55.580Z,76.64
2023-02-19T17:34:58.120Z,77.03
2023-02-19T17:39:01.909Z,77.48
2023-02-19T17:43:06.698Z,77.46
2023-02-19T17:47:09.278Z,77.40
2023-02-19T17:51:12.383Z,76.59
2023-02-19T17:55:18.372Z,76.22
2023-02-19T17:59:24.380Z,75.93
2023-02-19T18:03:26.925Z,75.95
2023-02-19T18:07:29.476Z,76.09
2023-02-19T18:11:32.023Z,75.46
2023-02-19T18:15:35.908Z,75.14
2023-02-19T18:19:38.434Z,74.93
2023-02-19T18:23:41.007Z,75.25
2023-02-19T18:27:43.806Z,76.12
2023-02-19T18:31:47.734Z,76.11
2023-02-19T18:35:50.385Z,76.75
2023-02-19T18:39:53.699Z,77.04
2023-02-19T18:43:56.191Z,76.58
2023-02-19T18:48:00.084Z,76.29
2023-02-19T18:52:02.633Z,75.66
2023-02-19T18:56:08.899Z,75.60
2023-02-19T19:00:16.748Z,75.93
2023-02-19T19:04:20.713Z,76.56
2023-02-19T19:08:23.262Z,75.91
2023-02-19T19:12:25.815Z,75.88
2023-02-19T19:16:29.988Z,75.76
2023-02-19T19:20:33.979Z,75.94
2023-02-19T19:24:36.468Z,75.93
2023-02-19T19:28:40.629Z,76.30
2023-02-19T19:32:43.266Z,76.80
2023-02-19T19:36:47.302Z,76.64
2023-02-19T19:40:49.804Z,76.44
2023-02-19T19:44:52.624Z,76.18
2023-02-19T19:48:55.154Z,75.74
2023-02-19T19:52:59.006Z,75.83
2023-02-19T19:57:01.547Z,75.78
2023-02-19T20:01:05.916Z,75.71
2023-02-19T20:05:08.942Z,76.12
2023-02-19T20:09:12.984Z,75.95
2023-02-19T20:13:16.988Z,75.50
2023-02-19T20:17:19.689Z,75.08
2023-02-19T20:21:22.219Z,75.17
2023-02-19T20:25:26.269Z,74.69
2023-02-19T20:29:30.152Z,74.93
2023-02-19T20:33:33.263Z,75.51
2023-02-19T20:37:38.238Z,76.15
2023-02-19T20:41:50.308Z,75.98
2023-02-19T20:45:55.256Z,76.14
2023-02-19T20:49:57.836Z,75.73
2023-02-19T20:54:00.371Z,75.73
2023-02-19T20:58:04.488Z,76.31
2023-02-19T21:02:09.721Z,76.52
2023-02-19T21:06:12.690Z,76.70
2023-02-19T21:10:15.353Z,76.94
2023-02-19T21:14:19.311Z,76.82
2023-02-19T21:18:21.874Z,77.98
2023-02-19T21:22:24.398Z,78.12
2023-02-19T21:26:34.982Z,78.36
2023-02-19T21:30:38.893Z,78.18
2023-02-19T21:34:41.457Z,78.03
2023-02-19T21:38:43.970Z,76.92
2023-02-19T21:42:46.549Z,77.65
2023-02-19T21:46:50.417Z,78.35
2023-02-19T21:50:52.985Z,78.66
2023-02-19T21:54:55.511Z,78.68
2023-02-19T21:58:58.557Z,79.08
